sensor_id;sensor_type;location;lat;lon;timestamp;temperature;humidity
21522;DHT22;10922;45.572;10.002;2022-12-18T00:01:02;7.90;1.00
21522;DHT22;10922;45.572;10.002;2022-12-18T00:03:32;7.90;1.00
21522;DHT22;10922;45.572;10.002;2022-12-18T00:05:58;7.90;1.00
21522;DHT22;10922;45.572;10.002;2022-12-18T00:08:24;7.90;1.00
21522;DHT22;10922;45.572;10.002;2022-12-18T00:10:50;7.90;1.00
21522;DHT22;10922;45.572;10.002;2022-12-18T00:13:15;7.90;1.00
21522;DHT22;10922;45.572;10.002;2022-12-18T00:15:41;7.90;1.00
21522;DHT22;10922;45.572;10.002;2022-12-18T00:18:07;7.90;1.00
21522;DHT22;10922;45.572;10.002;2022-12-18T00:20:37;7.90;1.00
21522;DHT22;10922;45.572;10.002;2022-12-18T00:23:04;7.90;1.00
21522;DHT22;10922;45.572;10.002;2022-12-18T00:25:31;7.80;1.00
21522;DHT22;10922;45.572;10.002;2022-12-18T00:27:57;7.80;1.00
21522;DHT22;10922;45.572;10.002;2022-12-18T00:30:23;7.80;1.00
21522;DHT22;10922;45.572;10.002;2022-12-18T00:32:48;7.80;1.00
21522;DHT22;10922;45.572;10.002;2022-12-18T00:35:14;7.70;1.00
21522;DHT22;10922;45.572;10.002;2022-12-18T00:37:39;7.70;1.00
21522;DHT22;10922;45.572;10.002;2022-12-18T00:40:06;7.70;1.00
21522;DHT22;10922;45.572;10.002;2022-12-18T00:42:34;7.60;1.00
21522;DHT22;10922;45.572;10.002;2022-12-18T00:45:18;7.50;1.00
21522;DHT22;10922;45.572;10.002;2022-12-18T00:47:43;7.50;1.00
21522;DHT22;10922;45.572;10.002;2022-12-18T00:50:09;7.50;1.00
21522;DHT22;10922;45.572;10.002;2022-12-18T00:52:35;7.60;1.00
21522;DHT22;10922;45.572;10.002;2022-12-18T00:55:00;7.60;1.00
21522;DHT22;10922;45.572;10.002;2022-12-18T00:57:26;7.60;1.00
21522;DHT22;10922;45.572;10.002;2022-12-18T00:59:52;7.60;1.00
21522;DHT22;10922;45.572;10.002;2022-12-18T01:02:17;7.60;1.00
21522;DHT22;10922;45.572;10.002;2022-12-18T01:04:43;7.60;1.00
21522;DHT22;10922;45.572;10.002;2022-12-18T01:07:09;7.50;1.00
21522;DHT22;10922;45.572;10.002;2022-12-18T01:09:34;7.50;1.00
21522;DHT22;10922;45.572;10.002;2022-12-18T01:12:00;7.60;1.00
21522;DHT22;10922;45.572;10.002;2022-12-18T01:14:26;7.60;1.00
21522;DHT22;10922;45.572;10.002;2022-12-18T01:16:51;7.60;1.00
21522;DHT22;10922;45.572;10.002;2022-12-18T01:19:17;7.70;1.00
21522;DHT22;10922;45.572;10.002;2022-12-18T01:21:43;7.60;1.00
21522;DHT22;10922;45.572;10.002;2022-12-18T01:24:12;7.70;1.00
21522;DHT22;10922;45.572;10.002;2022-12-18T01:26:37;7.60;1.00
21522;DHT22;10922;45.572;10.002;2022-12-18T01:29:03;7.60;1.00
21522;DHT22;10922;45.572;10.002;2022-12-18T01:31:31;7.60;1.00
21522;DHT22;10922;45.572;10.002;2022-12-18T01:33:58;7.60;1.00
21522;DHT22;10922;45.572;10.002;2022-12-18T01:36:30;7.50;1.00
21522;DHT22;10922;45.572;10.002;2022-12-18T01:38:56;7.60;1.00
21522;DHT22;10922;45.572;10.002;2022-12-18T01:41:24;7.60;1.00
21522;DHT22;10922;45.572;10.002;2022-12-18T01:43:57;7.60;1.00
21522;DHT22;10922;45.572;10.002;2022-12-18T01:46:24;7.60;1.00
21522;DHT22;10922;45.572;10.002;2022-12-18T01:48:55;7.60;1.00
21522;DHT22;10922;45.572;10.002;2022-12-18T01:51:22;7.60;1.00
21522;DHT22;10922;45.572;10.002;2022-12-18T01:53:48;7.50;1.00
21522;DHT22;10922;45.572;10.002;2022-12-18T01:56:16;7.50;1.00
21522;DHT22;10922;45.572;10.002;2022-12-18T01:58:58;7.50;1.00
21522;DHT22;10922;45.572;10.002;2022-12-18T02:01:25;7.50;1.00
21522;DHT22;10922;45.572;10.002;2022-12-18T02:03:51;7.50;1.00
21522;DHT22;10922;45.572;10.002;2022-12-18T02:06:34;7.40;1.00
21522;DHT22;10922;45.572;10.002;2022-12-18T02:09:18;7.50;1.00
21522;DHT22;10922;45.572;10.002;2022-12-18T02:12:16;7.40;1.00
21522;DHT22;10922;45.572;10.002;2022-12-18T02:14:59;7.40;1.00
21522;DHT22;10922;45.572;10.002;2022-12-18T02:17:39;7.40;1.00
21522;DHT22;10922;45.572;10.002;2022-12-18T02:20:24;7.40;1.00
21522;DHT22;10922;45.572;10.002;2022-12-18T02:28:59;7.40;1.00
21522;DHT22;10922;45.572;10.002;2022-12-18T02:31:29;7.40;1.00
21522;DHT22;10922;45.572;10.002;2022-12-18T02:34:00;7.40;1.00
21522;DHT22;10922;45.572;10.002;2022-12-18T02:36:28;7.50;1.00
21522;DHT22;10922;45.572;10.002;2022-12-18T02:38:55;7.50;1.00
21522;DHT22;10922;45.572;10.002;2022-12-18T02:41:22;7.50;1.00
21522;DHT22;10922;45.572;10.002;2022-12-18T02:44:01;7.50;1.00
21522;DHT22;10922;45.572;10.002;2022-12-18T02:46:46;7.50;1.00
21522;DHT22;10922;45.572;10.002;2022-12-18T02:49:30;7.40;1.00
21522;DHT22;10922;45.572;10.002;2022-12-18T02:57:42;7.30;1.00
21522;DHT22;10922;45.572;10.002;2022-12-18T03:02:52;7.30;1.00
21522;DHT22;10922;45.572;10.002;2022-12-18T03:05:24;7.30;1.00
21522;DHT22;10922;45.572;10.002;2022-12-18T03:08:02;7.30;1.00
21522;DHT22;10922;45.572;10.002;2022-12-18T03:10:32;7.30;1.00
21522;DHT22;10922;45.572;10.002;2022-12-18T03:13:14;7.20;1.00
21522;DHT22;10922;45.572;10.002;2022-12-18T03:15:47;7.20;1.00
21522;DHT22;10922;45.572;10.002;2022-12-18T03:18:22;7.00;1.00
21522;DHT22;10922;45.572;10.002;2022-12-18T03:20:49;7.00;1.00
21522;DHT22;10922;45.572;10.002;2022-12-18T03:23:21;6.90;1.00
21522;DHT22;10922;45.572;10.002;2022-12-18T03:25:50;7.00;1.00
21522;DHT22;10922;45.572;10.002;2022-12-18T03:28:20;6.90;1.00
21522;DHT22;10922;45.572;10.002;2022-12-18T03:30:50;7.00;1.00
21522;DHT22;10922;45.572;10.002;2022-12-18T03:33:27;7.00;1.00
21522;DHT22;10922;45.572;10.002;2022-12-18T03:35:55;7.00;1.00
21522;DHT22;10922;45.572;10.002;2022-12-18T03:38:21;7.00;1.00
21522;DHT22;10922;45.572;10.002;2022-12-18T03:41:04;7.00;1.00
21522;DHT22;10922;45.572;10.002;2022-12-18T03:49:12;6.90;1.00
21522;DHT22;10922;45.572;10.002;2022-12-18T03:51:50;6.80;1.00
21522;DHT22;10922;45.572;10.002;2022-12-18T03:54:17;6.90;1.00
21522;DHT22;10922;45.572;10.002;2022-12-18T03:56:47;7.00;1.00
21522;DHT22;10922;45.572;10.002;2022-12-18T03:59:15;6.90;1.00
21522;DHT22;10922;45.572;10.002;2022-12-18T04:01:46;6.90;1.00
21522;DHT22;10922;45.572;10.002;2022-12-18T04:04:13;6.80;1.00
21522;DHT22;10922;45.572;10.002;2022-12-18T04:06:40;6.70;1.00
21522;DHT22;10922;45.572;10.002;2022-12-18T04:09:07;6.70;1.00
21522;DHT22;10922;45.572;10.002;2022-12-18T04:11:33;6.60;1.00
21522;DHT22;10922;45.572;10.002;2022-12-18T04:13:59;6.60;1.00
21522;DHT22;10922;45.572;10.002;2022-12-18T04:16:26;6.70;1.00
21522;DHT22;10922;45.572;10.002;2022-12-18T04:18:52;6.80;1.00
21522;DHT22;10922;45.572;10.002;2022-12-18T04:21:17;6.90;1.00
21522;DHT22;10922;45.572;10.002;2022-12-18T04:23:43;6.90;1.00
21522;DHT22;10922;45.572;10.002;2022-12-18T04:26:09;6.90;1.00
21522;DHT22;10922;45.572;10.002;2022-12-18T04:28:34;6.90;1.00
21522;DHT22;10922;45.572;10.002;2022-12-18T04:31:00;7.00;1.00
21522;DHT22;10922;45.572;10.002;2022-12-18T04:33:26;6.90;1.00
21522;DHT22;10922;45.572;10.002;2022-12-18T04:35:51;6.90;1.00
21522;DHT22;10922;45.572;10.002;2022-12-18T04:38:17;6.80;1.00
21522;DHT22;10922;45.572;10.002;2022-12-18T04:40:43;6.70;1.00
21522;DHT22;10922;45.572;10.002;2022-12-18T04:43:09;6.80;1.00
21522;DHT22;10922;45.572;10.002;2022-12-18T04:45:34;6.80;1.00
21522;DHT22;10922;45.572;10.002;2022-12-18T04:48:01;6.80;1.00
21522;DHT22;10922;45.572;10.002;2022-12-18T04:50:27;6.80;1.00
21522;DHT22;10922;45.572;10.002;2022-12-18T04:52:53;6.90;1.00
21522;DHT22;10922;45.572;10.002;2022-12-18T04:55:19;7.00;1.00
21522;DHT22;10922;45.572;10.002;2022-12-18T04:57:45;6.90;1.00
21522;DHT22;10922;45.572;10.002;2022-12-18T05:00:11;6.90;1.00
21522;DHT22;10922;45.572;10.002;2022-12-18T05:02:37;6.90;1.00
21522;DHT22;10922;45.572;10.002;2022-12-18T05:05:03;6.80;1.00
21522;DHT22;10922;45.572;10.002;2022-12-18T05:07:28;6.60;1.00
21522;DHT22;10922;45.572;10.002;2022-12-18T05:09:54;6.40;1.00
21522;DHT22;10922;45.572;10.002;2022-12-18T05:12:20;6.40;1.00
21522;DHT22;10922;45.572;10.002;2022-12-18T05:14:45;6.50;1.00
21522;DHT22;10922;45.572;10.002;2022-12-18T05:17:11;6.50;1.00
21522;DHT22;10922;45.572;10.002;2022-12-18T05:19:37;6.50;1.00
21522;DHT22;10922;45.572;10.002;2022-12-18T05:22:03;6.50;1.00
21522;DHT22;10922;45.572;10.002;2022-12-18T05:24:28;6.60;1.00
21522;DHT22;10922;45.572;10.002;2022-12-18T05:26:54;6.50;1.00
21522;DHT22;10922;45.572;10.002;2022-12-18T05:29:20;6.70;1.00
21522;DHT22;10922;45.572;10.002;2022-12-18T05:31:45;6.70;1.00
21522;DHT22;10922;45.572;10.002;2022-12-18T05:34:11;6.80;1.00
21522;DHT22;10922;45.572;10.002;2022-12-18T05:36:37;6.80;1.00
21522;DHT22;10922;45.572;10.002;2022-12-18T05:39:02;6.70;1.00
21522;DHT22;10922;45.572;10.002;2022-12-18T05:41:28;6.80;1.00
21522;DHT22;10922;45.572;10.002;2022-12-18T05:43:54;6.80;1.00
21522;DHT22;10922;45.572;10.002;2022-12-18T05:46:20;6.80;1.00
21522;DHT22;10922;45.572;10.002;2022-12-18T05:48:46;6.80;1.00
21522;DHT22;10922;45.572;10.002;2022-12-18T05:51:17;6.80;1.00
21522;DHT22;10922;45.572;10.002;2022-12-18T05:53:43;6.90;1.00
21522;DHT22;10922;45.572;10.002;2022-12-18T05:56:12;6.90;1.00
21522;DHT22;10922;45.572;10.002;2022-12-18T05:58:42;6.70;1.00
21522;DHT22;10922;45.572;10.002;2022-12-18T06:01:11;6.70;1.00
21522;DHT22;10922;45.572;10.002;2022-12-18T06:03:38;6.80;1.00
21522;DHT22;10922;45.572;10.002;2022-12-18T06:06:21;6.70;1.00
21522;DHT22;10922;45.572;10.002;2022-12-18T06:08:47;6.70;1.00
21522;DHT22;10922;45.572;10.002;2022-12-18T06:11:17;6.70;1.00
21522;DHT22;10922;45.572;10.002;2022-12-18T06:13:42;6.80;1.00
21522;DHT22;10922;45.572;10.002;2022-12-18T06:16:08;6.80;1.00
21522;DHT22;10922;45.572;10.002;2022-12-18T06:18:34;6.80;1.00
21522;DHT22;10922;45.572;10.002;2022-12-18T06:21:00;6.80;1.00
21522;DHT22;10922;45.572;10.002;2022-12-18T06:23:26;6.70;1.00
21522;DHT22;10922;45.572;10.002;2022-12-18T06:25:52;6.70;1.00
21522;DHT22;10922;45.572;10.002;2022-12-18T06:28:18;6.80;1.00
21522;DHT22;10922;45.572;10.002;2022-12-18T06:30:44;6.80;1.00
21522;DHT22;10922;45.572;10.002;2022-12-18T06:33:10;6.80;1.00
21522;DHT22;10922;45.572;10.002;2022-12-18T06:35:36;6.70;1.00
21522;DHT22;10922;45.572;10.002;2022-12-18T06:38:02;6.70;1.00
21522;DHT22;10922;45.572;10.002;2022-12-18T06:40:28;6.70;1.00
21522;DHT22;10922;45.572;10.002;2022-12-18T06:42:54;6.70;1.00
21522;DHT22;10922;45.572;10.002;2022-12-18T06:45:19;6.80;1.00
21522;DHT22;10922;45.572;10.002;2022-12-18T06:47:45;6.70;1.00
21522;DHT22;10922;45.572;10.002;2022-12-18T06:50:12;6.80;1.00
21522;DHT22;10922;45.572;10.002;2022-12-18T06:52:38;6.70;1.00
21522;DHT22;10922;45.572;10.002;2022-12-18T06:55:06;6.70;1.00
21522;DHT22;10922;45.572;10.002;2022-12-18T06:57:32;6.70;1.00
21522;DHT22;10922;45.572;10.002;2022-12-18T06:59:57;6.60;1.00
21522;DHT22;10922;45.572;10.002;2022-12-18T07:02:23;6.70;1.00
21522;DHT22;10922;45.572;10.002;2022-12-18T07:04:50;6.60;1.00
21522;DHT22;10922;45.572;10.002;2022-12-18T07:07:16;6.50;1.00
21522;DHT22;10922;45.572;10.002;2022-12-18T07:09:41;6.40;1.00
21522;DHT22;10922;45.572;10.002;2022-12-18T07:12:07;6.40;1.00
21522;DHT22;10922;45.572;10.002;2022-12-18T07:14:33;6.40;1.00
21522;DHT22;10922;45.572;10.002;2022-12-18T07:16:59;6.50;1.00
21522;DHT22;10922;45.572;10.002;2022-12-18T07:19:25;6.40;1.00
21522;DHT22;10922;45.572;10.002;2022-12-18T07:21:50;6.60;1.00
21522;DHT22;10922;45.572;10.002;2022-12-18T07:24:16;6.50;1.00
21522;DHT22;10922;45.572;10.002;2022-12-18T07:26:42;6.60;1.00
21522;DHT22;10922;45.572;10.002;2022-12-18T07:29:08;6.60;1.00
21522;DHT22;10922;45.572;10.002;2022-12-18T07:31:33;6.60;1.00
21522;DHT22;10922;45.572;10.002;2022-12-18T07:33:59;6.60;1.00
21522;DHT22;10922;45.572;10.002;2022-12-18T07:36:25;6.50;1.00
21522;DHT22;10922;45.572;10.002;2022-12-18T07:38:51;6.50;1.00
21522;DHT22;10922;45.572;10.002;2022-12-18T07:41:18;6.60;1.00
21522;DHT22;10922;45.572;10.002;2022-12-18T07:43:44;6.60;1.00
21522;DHT22;10922;45.572;10.002;2022-12-18T07:46:11;6.70;1.00
21522;DHT22;10922;45.572;10.002;2022-12-18T07:48:42;6.80;1.00
21522;DHT22;10922;45.572;10.002;2022-12-18T07:51:08;6.80;1.00
21522;DHT22;10922;45.572;10.002;2022-12-18T07:53:35;6.90;1.00
21522;DHT22;10922;45.572;10.002;2022-12-18T07:56:04;6.90;1.00
21522;DHT22;10922;45.572;10.002;2022-12-18T07:58:30;6.90;1.00
21522;DHT22;10922;45.572;10.002;2022-12-18T08:01:07;6.90;1.00
21522;DHT22;10922;45.572;10.002;2022-12-18T08:03:33;6.90;1.00
21522;DHT22;10922;45.572;10.002;2022-12-18T08:06:02;7.00;1.00
21522;DHT22;10922;45.572;10.002;2022-12-18T08:08:28;7.00;1.00
21522;DHT22;10922;45.572;10.002;2022-12-18T08:10:55;7.00;1.00
21522;DHT22;10922;45.572;10.002;2022-12-18T08:13:21;7.10;1.00
21522;DHT22;10922;45.572;10.002;2022-12-18T08:15:54;7.10;1.00
21522;DHT22;10922;45.572;10.002;2022-12-18T08:18:20;7.00;1.00
21522;DHT22;10922;45.572;10.002;2022-12-18T08:20:45;7.00;1.00
21522;DHT22;10922;45.572;10.002;2022-12-18T08:23:11;7.00;1.00
21522;DHT22;10922;45.572;10.002;2022-12-18T08:25:37;7.00;1.00
21522;DHT22;10922;45.572;10.002;2022-12-18T08:28:02;7.00;1.00
21522;DHT22;10922;45.572;10.002;2022-12-18T08:30:28;7.10;1.00
21522;DHT22;10922;45.572;10.002;2022-12-18T08:32:54;7.00;1.00
21522;DHT22;10922;45.572;10.002;2022-12-18T08:35:20;7.00;1.00
21522;DHT22;10922;45.572;10.002;2022-12-18T08:37:45;7.00;1.00
21522;DHT22;10922;45.572;10.002;2022-12-18T08:40:11;7.00;1.00
21522;DHT22;10922;45.572;10.002;2022-12-18T08:42:38;7.10;1.00
21522;DHT22;10922;45.572;10.002;2022-12-18T08:45:22;7.20;1.00
21522;DHT22;10922;45.572;10.002;2022-12-18T08:47:48;7.20;1.00
21522;DHT22;10922;45.572;10.002;2022-12-18T08:50:13;7.20;1.00
21522;DHT22;10922;45.572;10.002;2022-12-18T08:52:40;7.20;1.00
21522;DHT22;10922;45.572;10.002;2022-12-18T08:55:06;7.20;1.00
21522;DHT22;10922;45.572;10.002;2022-12-18T08:57:32;7.30;1.00
21522;DHT22;10922;45.572;10.002;2022-12-18T08:59:57;7.30;1.00
21522;DHT22;10922;45.572;10.002;2022-12-18T09:02:24;7.40;1.00
21522;DHT22;10922;45.572;10.002;2022-12-18T09:04:50;7.50;1.00
21522;DHT22;10922;45.572;10.002;2022-12-18T09:07:16;7.60;1.00
21522;DHT22;10922;45.572;10.002;2022-12-18T09:09:42;7.70;1.00
21522;DHT22;10922;45.572;10.002;2022-12-18T09:12:07;7.70;1.00
21522;DHT22;10922;45.572;10.002;2022-12-18T09:14:33;7.80;1.00
21522;DHT22;10922;45.572;10.002;2022-12-18T09:16:58;7.80;1.00
21522;DHT22;10922;45.572;10.002;2022-12-18T09:19:24;7.80;1.00
21522;DHT22;10922;45.572;10.002;2022-12-18T09:21:50;7.90;1.00
21522;DHT22;10922;45.572;10.002;2022-12-18T09:24:16;8.10;1.00
21522;DHT22;10922;45.572;10.002;2022-12-18T09:26:42;8.10;1.00
21522;DHT22;10922;45.572;10.002;2022-12-18T09:29:07;8.00;1.00
21522;DHT22;10922;45.572;10.002;2022-12-18T09:31:34;8.10;1.00
21522;DHT22;10922;45.572;10.002;2022-12-18T09:33:59;8.10;1.00
21522;DHT22;10922;45.572;10.002;2022-12-18T09:36:25;8.20;1.00
21522;DHT22;10922;45.572;10.002;2022-12-18T09:38:51;8.20;1.00
21522;DHT22;10922;45.572;10.002;2022-12-18T09:41:39;8.20;1.00
21522;DHT22;10922;45.572;10.002;2022-12-18T09:44:29;8.30;1.00
21522;DHT22;10922;45.572;10.002;2022-12-18T09:49:48;8.10;1.00
21522;DHT22;10922;45.572;10.002;2022-12-18T09:52:43;8.10;1.00
21522;DHT22;10922;45.572;10.002;2022-12-18T09:55:28;8.20;1.00
21522;DHT22;10922;45.572;10.002;2022-12-18T09:58:00;8.40;1.00
21522;DHT22;10922;45.572;10.002;2022-12-18T10:00:28;8.40;1.00
21522;DHT22;10922;45.572;10.002;2022-12-18T10:03:01;8.50;1.00
21522;DHT22;10922;45.572;10.002;2022-12-18T10:08:16;8.60;1.00
21522;DHT22;10922;45.572;10.002;2022-12-18T10:10:52;8.60;1.00
21522;DHT22;10922;45.572;10.002;2022-12-18T10:16:09;8.70;1.00
21522;DHT22;10922;45.572;10.002;2022-12-18T10:26:46;9.10;1.00
21522;DHT22;10922;45.572;10.002;2022-12-18T10:29:15;9.20;1.00
21522;DHT22;10922;45.572;10.002;2022-12-18T10:31:41;9.40;1.00
21522;DHT22;10922;45.572;10.002;2022-12-18T10:34:15;9.40;1.00
21522;DHT22;10922;45.572;10.002;2022-12-18T10:36:42;9.60;1.00
21522;DHT22;10922;45.572;10.002;2022-12-18T10:39:23;9.50;1.00
21522;DHT22;10922;45.572;10.002;2022-12-18T10:41:50;9.80;1.00
21522;DHT22;10922;45.572;10.002;2022-12-18T10:44:23;9.60;1.00
21522;DHT22;10922;45.572;10.002;2022-12-18T10:47:03;9.60;1.00
21522;DHT22;10922;45.572;10.002;2022-12-18T10:49:32;9.60;1.00
21522;DHT22;10922;45.572;10.002;2022-12-18T10:52:21;9.60;1.00
21522;DHT22;10922;45.572;10.002;2022-12-18T10:54:57;9.80;1.00
21522;DHT22;10922;45.572;10.002;2022-12-18T11:02:47;10.40;1.00
21522;DHT22;10922;45.572;10.002;2022-12-18T11:05:41;10.50;1.00
21522;DHT22;10922;45.572;10.002;2022-12-18T11:08:19;10.60;1.00
21522;DHT22;10922;45.572;10.002;2022-12-18T11:10:46;10.30;1.00
21522;DHT22;10922;45.572;10.002;2022-12-18T11:13:23;10.40;1.00
21522;DHT22;10922;45.572;10.002;2022-12-18T11:15:50;10.20;1.00
21522;DHT22;10922;45.572;10.002;2022-12-18T11:18:19;10.20;1.00
21522;DHT22;10922;45.572;10.002;2022-12-18T11:20:51;10.20;1.00
21522;DHT22;10922;45.572;10.002;2022-12-18T11:23:19;9.70;1.00
21522;DHT22;10922;45.572;10.002;2022-12-18T11:25:55;10.00;1.00
21522;DHT22;10922;45.572;10.002;2022-12-18T11:28:34;10.00;1.00
21522;DHT22;10922;45.572;10.002;2022-12-18T11:31:17;9.80;1.00
21522;DHT22;10922;45.572;10.002;2022-12-18T11:48:19;9.40;1.00
21522;DHT22;10922;45.572;10.002;2022-12-18T11:50:57;9.50;1.00
21522;DHT22;10922;45.572;10.002;2022-12-18T11:53:28;9.10;1.00
21522;DHT22;10922;45.572;10.002;2022-12-18T12:03:56;9.90;1.00
21522;DHT22;10922;45.572;10.002;2022-12-18T12:09:40;11.10;1.00
21522;DHT22;10922;45.572;10.002;2022-12-18T12:21:09;12.50;1.00
21522;DHT22;10922;45.572;10.002;2022-12-18T12:23:56;12.50;1.00
21522;DHT22;10922;45.572;10.002;2022-12-18T12:26:40;13.60;1.00
21522;DHT22;10922;45.572;10.002;2022-12-18T12:29:40;14.00;1.00
21522;DHT22;10922;45.572;10.002;2022-12-18T12:38:11;13.10;1.00
21522;DHT22;10922;45.572;10.002;2022-12-18T12:41:01;13.10;1.00
21522;DHT22;10922;45.572;10.002;2022-12-18T12:46:05;13.40;1.00
21522;DHT22;10922;45.572;10.002;2022-12-18T12:48:49;13.90;1.00
21522;DHT22;10922;45.572;10.002;2022-12-18T12:51:21;14.40;1.00
21522;DHT22;10922;45.572;10.002;2022-12-18T12:53:49;14.20;1.00
21522;DHT22;10922;45.572;10.002;2022-12-18T12:56:17;15.40;1.00
21522;DHT22;10922;45.572;10.002;2022-12-18T12:59:01;15.00;1.00
21522;DHT22;10922;45.572;10.002;2022-12-18T13:01:59;16.10;1.00
21522;DHT22;10922;45.572;10.002;2022-12-18T13:04:49;16.60;1.00
21522;DHT22;10922;45.572;10.002;2022-12-18T13:07:31;15.60;1.00
21522;DHT22;10922;45.572;10.002;2022-12-18T13:13:00;15.00;1.00
21522;DHT22;10922;45.572;10.002;2022-12-18T13:15:42;15.30;1.00
21522;DHT22;10922;45.572;10.002;2022-12-18T13:20:40;14.60;1.00
21522;DHT22;10922;45.572;10.002;2022-12-18T13:25:55;13.40;1.00
21522;DHT22;10922;45.572;10.002;2022-12-18T13:31:02;13.00;1.00
21522;DHT22;10922;45.572;10.002;2022-12-18T13:51:19;11.00;1.00
21522;DHT22;10922;45.572;10.002;2022-12-18T13:53:56;10.50;1.00
21522;DHT22;10922;45.572;10.002;2022-12-18T13:56:26;9.80;1.00
21522;DHT22;10922;45.572;10.002;2022-12-18T14:01:59;9.90;1.00
21522;DHT22;10922;45.572;10.002;2022-12-18T14:04:31;10.20;1.00
21522;DHT22;10922;45.572;10.002;2022-12-18T14:07:05;10.00;1.00
21522;DHT22;10922;45.572;10.002;2022-12-18T14:09:40;9.60;1.00
21522;DHT22;10922;45.572;10.002;2022-12-18T14:12:11;9.50;1.00
21522;DHT22;10922;45.572;10.002;2022-12-18T14:14:58;9.40;1.00
21522;DHT22;10922;45.572;10.002;2022-12-18T14:17:24;9.20;1.00
21522;DHT22;10922;45.572;10.002;2022-12-18T14:19:51;9.20;1.00
21522;DHT22;10922;45.572;10.002;2022-12-18T14:22:22;9.30;1.00
21522;DHT22;10922;45.572;10.002;2022-12-18T14:25:18;9.20;1.00
21522;DHT22;10922;45.572;10.002;2022-12-18T14:27:52;9.10;1.00
21522;DHT22;10922;45.572;10.002;2022-12-18T14:30:32;9.20;1.00
21522;DHT22;10922;45.572;10.002;2022-12-18T14:33:19;9.30;1.00
21522;DHT22;10922;45.572;10.002;2022-12-18T14:38:28;9.50;1.00
21522;DHT22;10922;45.572;10.002;2022-12-18T14:43:20;10.20;1.00
21522;DHT22;10922;45.572;10.002;2022-12-18T14:45:47;10.50;1.00
21522;DHT22;10922;45.572;10.002;2022-12-18T14:51:02;10.10;1.00
21522;DHT22;10922;45.572;10.002;2022-12-18T14:53:35;10.30;1.00
21522;DHT22;10922;45.572;10.002;2022-12-18T14:56:03;10.10;1.00
21522;DHT22;10922;45.572;10.002;2022-12-18T14:58:29;9.50;1.00
21522;DHT22;10922;45.572;10.002;2022-12-18T15:00:55;9.20;1.00
21522;DHT22;10922;45.572;10.002;2022-12-18T15:03:21;8.60;1.00
21522;DHT22;10922;45.572;10.002;2022-12-18T15:05:47;8.50;1.00
21522;DHT22;10922;45.572;10.002;2022-12-18T15:08:49;8.30;1.00
21522;DHT22;10922;45.572;10.002;2022-12-18T15:11:55;8.20;1.00
21522;DHT22;10922;45.572;10.002;2022-12-18T15:14:38;8.00;1.00
21522;DHT22;10922;45.572;10.002;2022-12-18T15:17:25;7.90;1.00
21522;DHT22;10922;45.572;10.002;2022-12-18T15:20:00;7.60;1.00
21522;DHT22;10922;45.572;10.002;2022-12-18T15:22:33;7.50;1.00
21522;DHT22;10922;45.572;10.002;2022-12-18T15:24:59;7.30;1.00
21522;DHT22;10922;45.572;10.002;2022-12-18T15:27:34;7.00;1.00
21522;DHT22;10922;45.572;10.002;2022-12-18T15:32:36;6.80;1.00
21522;DHT22;10922;45.572;10.002;2022-12-18T15:37:35;6.50;1.00
21522;DHT22;10922;45.572;10.002;2022-12-18T15:40:00;6.50;1.00
21522;DHT22;10922;45.572;10.002;2022-12-18T15:42:30;6.30;1.00
21522;DHT22;10922;45.572;10.002;2022-12-18T15:45:14;6.20;1.00
21522;DHT22;10922;45.572;10.002;2022-12-18T15:47:41;6.10;1.00
21522;DHT22;10922;45.572;10.002;2022-12-18T15:50:09;6.00;1.00
21522;DHT22;10922;45.572;10.002;2022-12-18T15:52:44;6.00;1.00
21522;DHT22;10922;45.572;10.002;2022-12-18T15:55:20;5.80;1.00
21522;DHT22;10922;45.572;10.002;2022-12-18T15:58:06;5.70;1.00
21522;DHT22;10922;45.572;10.002;2022-12-18T16:00:34;5.70;1.00
21522;DHT22;10922;45.572;10.002;2022-12-18T16:03:01;5.70;1.00
21522;DHT22;10922;45.572;10.002;2022-12-18T16:05:27;5.70;1.00
21522;DHT22;10922;45.572;10.002;2022-12-18T16:07:53;5.60;1.00
21522;DHT22;10922;45.572;10.002;2022-12-18T16:10:19;5.50;1.00
21522;DHT22;10922;45.572;10.002;2022-12-18T16:12:45;5.50;1.00
21522;DHT22;10922;45.572;10.002;2022-12-18T16:15:14;5.50;1.00
21522;DHT22;10922;45.572;10.002;2022-12-18T16:17:44;5.40;1.00
21522;DHT22;10922;45.572;10.002;2022-12-18T16:20:15;5.40;1.00
21522;DHT22;10922;45.572;10.002;2022-12-18T16:22:42;5.30;1.00
21522;DHT22;10922;45.572;10.002;2022-12-18T16:25:19;5.40;1.00
21522;DHT22;10922;45.572;10.002;2022-12-18T16:27:45;5.40;1.00
21522;DHT22;10922;45.572;10.002;2022-12-18T16:30:18;5.40;1.00
21522;DHT22;10922;45.572;10.002;2022-12-18T16:32:44;5.30;1.00
21522;DHT22;10922;45.572;10.002;2022-12-18T16:35:12;5.30;1.00
21522;DHT22;10922;45.572;10.002;2022-12-18T16:37:39;5.30;1.00
21522;DHT22;10922;45.572;10.002;2022-12-18T16:40:07;5.50;1.00
21522;DHT22;10922;45.572;10.002;2022-12-18T16:42:35;5.60;1.00
21522;DHT22;10922;45.572;10.002;2022-12-18T16:45:01;5.60;1.00
21522;DHT22;10922;45.572;10.002;2022-12-18T16:47:27;5.80;1.00
21522;DHT22;10922;45.572;10.002;2022-12-18T16:49:53;5.90;1.00
21522;DHT22;10922;45.572;10.002;2022-12-18T16:52:19;6.00;1.00
21522;DHT22;10922;45.572;10.002;2022-12-18T16:54:45;6.10;1.00
21522;DHT22;10922;45.572;10.002;2022-12-18T16:57:17;5.90;1.00
21522;DHT22;10922;45.572;10.002;2022-12-18T16:59:43;5.90;1.00
21522;DHT22;10922;45.572;10.002;2022-12-18T17:02:18;6.00;1.00
21522;DHT22;10922;45.572;10.002;2022-12-18T17:04:47;6.00;1.00
21522;DHT22;10922;45.572;10.002;2022-12-18T17:07:14;5.90;1.00
21522;DHT22;10922;45.572;10.002;2022-12-18T17:09:40;5.70;1.00
21522;DHT22;10922;45.572;10.002;2022-12-18T17:12:06;5.80;1.00
21522;DHT22;10922;45.572;10.002;2022-12-18T17:14:32;5.80;1.00
21522;DHT22;10922;45.572;10.002;2022-12-18T17:16:59;5.80;1.00
21522;DHT22;10922;45.572;10.002;2022-12-18T17:19:25;5.80;1.00
21522;DHT22;10922;45.572;10.002;2022-12-18T17:21:52;5.90;1.00
21522;DHT22;10922;45.572;10.002;2022-12-18T17:24:18;5.80;1.00
21522;DHT22;10922;45.572;10.002;2022-12-18T17:26:44;5.90;1.00
21522;DHT22;10922;45.572;10.002;2022-12-18T17:29:18;5.90;1.00
21522;DHT22;10922;45.572;10.002;2022-12-18T17:31:45;5.90;1.00
21522;DHT22;10922;45.572;10.002;2022-12-18T17:34:12;5.80;1.00
21522;DHT22;10922;45.572;10.002;2022-12-18T17:36:38;5.80;1.00
21522;DHT22;10922;45.572;10.002;2022-12-18T17:39:04;5.70;1.00
21522;DHT22;10922;45.572;10.002;2022-12-18T17:41:31;5.70;1.00
21522;DHT22;10922;45.572;10.002;2022-12-18T17:43:59;5.60;1.00
21522;DHT22;10922;45.572;10.002;2022-12-18T17:46:27;5.70;1.00
21522;DHT22;10922;45.572;10.002;2022-12-18T17:48:56;5.90;1.00
21522;DHT22;10922;45.572;10.002;2022-12-18T17:51:26;5.80;1.00
21522;DHT22;10922;45.572;10.002;2022-12-18T17:53:52;5.90;1.00
21522;DHT22;10922;45.572;10.002;2022-12-18T17:56:20;6.00;1.00
21522;DHT22;10922;45.572;10.002;2022-12-18T17:58:47;6.00;1.00
21522;DHT22;10922;45.572;10.002;2022-12-18T18:01:19;5.90;1.00
21522;DHT22;10922;45.572;10.002;2022-12-18T18:03:46;6.10;1.00
21522;DHT22;10922;45.572;10.002;2022-12-18T18:06:21;6.20;1.00
21522;DHT22;10922;45.572;10.002;2022-12-18T18:08:47;6.30;1.00
21522;DHT22;10922;45.572;10.002;2022-12-18T18:11:15;6.20;1.00